sensor_id;sensor_type;location;lat;lon;timestamp;pressure;altitude;pressure_sealevel;temperature;humidity
6343;BME280;3204;42.698;23.298;2022-11-20T00:00:02;94236.03;;;17.47;69.65
6343;BME280;3204;42.698;23.298;2022-11-20T00:02:28;94227.66;;;17.92;68.40
6343;BME280;3204;42.698;23.298;2022-11-20T00:04:53;94229.69;;;17.98;68.75
6343;BME280;3204;42.698;23.298;2022-11-20T00:07:19;94247.81;;;17.77;70.00
6343;BME280;3204;42.698;23.298;2022-11-20T00:09:44;94205.66;;;17.88;69.44
6343;BME280;3204;42.698;23.298;2022-11-20T00:12:09;94236.25;;;17.90;69.39
6343;BME280;3204;42.698;23.298;2022-11-20T00:14:35;94225.97;;;18.13;67.35
6343;BME280;3204;42.698;23.298;2022-11-20T00:17:00;94215.53;;;18.26;67.24
6343;BME280;3204;42.698;23.298;2022-11-20T00:19:26;94217.97;;;18.31;67.05
6343;BME280;3204;42.698;23.298;2022-11-20T00:21:51;94202.03;;;18.43;66.40
6343;BME280;3204;42.698;23.298;2022-11-20T00:24:18;94208.78;;;18.49;65.87
6343;BME280;3204;42.698;23.298;2022-11-20T00:26:44;94223.75;;;18.55;65.53
6343;BME280;3204;42.698;23.298;2022-11-20T00:29:10;94219.16;;;18.66;64.67
6343;BME280;3204;42.698;23.298;2022-11-20T00:31:36;94222.84;;;18.84;63.99
6343;BME280;3204;42.698;23.298;2022-11-20T00:34:01;94207.75;;;19.04;62.62
6343;BME280;3204;42.698;23.298;2022-11-20T00:36:28;94213.63;;;19.03;62.70
6343;BME280;3204;42.698;23.298;2022-11-20T00:38:56;94203.09;;;19.12;62.77
6343;BME280;3204;42.698;23.298;2022-11-20T00:41:22;94191.31;;;19.15;63.07
6343;BME280;3204;42.698;23.298;2022-11-20T00:43:48;94206.22;;;19.10;62.93
6343;BME280;3204;42.698;23.298;2022-11-20T00:46:16;94240.75;;;19.04;63.33
6343;BME280;3204;42.698;23.298;2022-11-20T00:48:42;94215.66;;;19.13;62.90
6343;BME280;3204;42.698;23.298;2022-11-20T00:51:08;94232.22;;;19.20;62.40
6343;BME280;3204;42.698;23.298;2022-11-20T00:53:34;94209.44;;;19.19;62.74
6343;BME280;3204;42.698;23.298;2022-11-20T00:56:05;94195.38;;;19.28;62.32
6343;BME280;3204;42.698;23.298;2022-11-20T00:58:32;94198.53;;;19.26;62.39
6343;BME280;3204;42.698;23.298;2022-11-20T01:01:06;94195.75;;;19.23;62.45
6343;BME280;3204;42.698;23.298;2022-11-20T01:03:35;94192.66;;;19.31;61.84
6343;BME280;3204;42.698;23.298;2022-11-20T01:06:02;94195.78;;;19.30;62.42
6343;BME280;3204;42.698;23.298;2022-11-20T01:08:32;94200.03;;;19.20;63.08
6343;BME280;3204;42.698;23.298;2022-11-20T01:11:00;94194.53;;;19.20;62.83
6343;BME280;3204;42.698;23.298;2022-11-20T01:13:25;94173.31;;;19.21;63.33
6343;BME280;3204;42.698;23.298;2022-11-20T01:16:14;94192.88;;;19.12;63.67
6343;BME280;3204;42.698;23.298;2022-11-20T01:18:43;94170.50;;;19.14;63.56
6343;BME280;3204;42.698;23.298;2022-11-20T01:21:20;94156.75;;;19.14;63.41
6343;BME280;3204;42.698;23.298;2022-11-20T01:23:47;94196.00;;;19.11;63.23
6343;BME280;3204;42.698;23.298;2022-11-20T01:26:18;94165.38;;;19.12;62.65
6343;BME280;3204;42.698;23.298;2022-11-20T01:28:44;94158.44;;;19.25;61.77
6343;BME280;3204;42.698;23.298;2022-11-20T01:31:21;94176.81;;;19.18;62.63
6343;BME280;3204;42.698;23.298;2022-11-20T01:33:49;94168.94;;;19.13;63.04
6343;BME280;3204;42.698;23.298;2022-11-20T01:36:17;94144.47;;;19.01;63.25
6343;BME280;3204;42.698;23.298;2022-11-20T01:38:43;94183.16;;;19.22;62.83
6343;BME280;3204;42.698;23.298;2022-11-20T01:41:10;94140.25;;;19.10;62.40
6343;BME280;3204;42.698;23.298;2022-11-20T01:43:36;94159.94;;;19.19;62.16
6343;BME280;3204;42.698;23.298;2022-11-20T01:46:03;94166.22;;;19.20;62.23
6343;BME280;3204;42.698;23.298;2022-11-20T01:49:18;94152.84;;;19.18;62.15
6343;BME280;3204;42.698;23.298;2022-11-20T01:51:34;94160.41;;;19.25;61.39
6343;BME280;3204;42.698;23.298;2022-11-20T01:54:05;94174.56;;;19.23;61.57
6343;BME280;3204;42.698;23.298;2022-11-20T01:56:37;94167.75;;;19.14;62.08
6343;BME280;3204;42.698;23.298;2022-11-20T01:59:05;94171.34;;;19.21;61.61
6343;BME280;3204;42.698;23.298;2022-11-20T02:01:33;94180.78;;;19.20;61.85
6343;BME280;3204;42.698;23.298;2022-11-20T02:03:59;94178.78;;;19.17;61.95
6343;BME280;3204;42.698;23.298;2022-11-20T02:06:28;94174.47;;;19.20;61.69
6343;BME280;3204;42.698;23.298;2022-11-20T02:08:54;94156.44;;;19.22;61.16
6343;BME280;3204;42.698;23.298;2022-11-20T02:11:20;94163.19;;;19.28;61.25
6343;BME280;3204;42.698;23.298;2022-11-20T02:13:47;94184.66;;;19.16;61.92
6343;BME280;3204;42.698;23.298;2022-11-20T02:16:25;94173.13;;;18.96;62.40
6343;BME280;3204;42.698;23.298;2022-11-20T02:18:52;94155.06;;;18.95;62.95
6343;BME280;3204;42.698;23.298;2022-11-20T02:21:40;94174.72;;;19.01;63.11
6343;BME280;3204;42.698;23.298;2022-11-20T02:24:13;94164.16;;;19.06;62.27
6343;BME280;3204;42.698;23.298;2022-11-20T02:27:01;94172.44;;;19.10;62.12
6343;BME280;3204;42.698;23.298;2022-11-20T02:32:02;94172.41;;;19.06;62.46
6343;BME280;3204;42.698;23.298;2022-11-20T02:34:28;94163.81;;;19.11;61.54
6343;BME280;3204;42.698;23.298;2022-11-20T02:36:54;94164.63;;;19.12;62.00
6343;BME280;3204;42.698;23.298;2022-11-20T02:39:23;94174.78;;;19.08;62.17
6343;BME280;3204;42.698;23.298;2022-11-20T02:41:54;94175.56;;;19.08;61.65
6343;BME280;3204;42.698;23.298;2022-11-20T02:44:21;94182.59;;;19.06;62.65
6343;BME280;3204;42.698;23.298;2022-11-20T02:46:46;94183.75;;;19.01;62.90
6343;BME280;3204;42.698;23.298;2022-11-20T02:49:12;94200.34;;;19.12;63.12
6343;BME280;3204;42.698;23.298;2022-11-20T02:51:37;94179.91;;;19.09;63.44
6343;BME280;3204;42.698;23.298;2022-11-20T02:54:03;94195.22;;;19.10;63.73
6343;BME280;3204;42.698;23.298;2022-11-20T02:56:29;94189.66;;;19.03;64.08
6343;BME280;3204;42.698;23.298;2022-11-20T02:58:54;94197.44;;;18.94;64.66
6343;BME280;3204;42.698;23.298;2022-11-20T03:01:21;94193.47;;;18.92;65.18
6343;BME280;3204;42.698;23.298;2022-11-20T03:03:46;94208.75;;;18.86;65.70
6343;BME280;3204;42.698;23.298;2022-11-20T03:06:14;94223.31;;;18.90;65.14
6343;BME280;3204;42.698;23.298;2022-11-20T03:08:41;94202.84;;;18.84;65.17
6343;BME280;3204;42.698;23.298;2022-11-20T03:11:07;94220.06;;;18.77;65.99
6343;BME280;3204;42.698;23.298;2022-11-20T03:13:33;94222.47;;;18.82;65.95
6343;BME280;3204;42.698;23.298;2022-11-20T03:16:07;94218.38;;;18.66;66.49
6343;BME280;3204;42.698;23.298;2022-11-20T03:18:33;94227.66;;;18.54;66.67
6343;BME280;3204;42.698;23.298;2022-11-20T03:20:59;94213.28;;;18.68;66.43
6343;BME280;3204;42.698;23.298;2022-11-20T03:23:25;94223.91;;;18.73;66.56
6343;BME280;3204;42.698;23.298;2022-11-20T03:25:50;94214.91;;;18.72;66.44
6343;BME280;3204;42.698;23.298;2022-11-20T03:28:16;94216.00;;;18.68;66.58
6343;BME280;3204;42.698;23.298;2022-11-20T03:30:41;94219.56;;;18.68;66.20
6343;BME280;3204;42.698;23.298;2022-11-20T03:33:07;94234.84;;;18.66;66.08
6343;BME280;3204;42.698;23.298;2022-11-20T03:35:32;94237.81;;;18.50;66.56
6343;BME280;3204;42.698;23.298;2022-11-20T03:37:58;94226.47;;;18.55;66.11
6343;BME280;3204;42.698;23.298;2022-11-20T03:40:23;94237.06;;;18.53;66.29
6343;BME280;3204;42.698;23.298;2022-11-20T03:42:49;94254.88;;;18.66;65.88
6343;BME280;3204;42.698;23.298;2022-11-20T03:45:18;94254.91;;;18.70;65.88
6343;BME280;3204;42.698;23.298;2022-11-20T03:47:44;94262.31;;;18.66;66.48
6343;BME280;3204;42.698;23.298;2022-11-20T03:50:12;94256.25;;;18.50;67.28
6343;BME280;3204;42.698;23.298;2022-11-20T03:52:39;94257.50;;;18.56;66.64
6343;BME280;3204;42.698;23.298;2022-11-20T03:55:06;94248.78;;;18.50;66.16
6343;BME280;3204;42.698;23.298;2022-11-20T03:57:31;94247.25;;;18.53;66.36
6343;BME280;3204;42.698;23.298;2022-11-20T03:59:57;94246.34;;;18.42;66.48
6343;BME280;3204;42.698;23.298;2022-11-20T04:02:22;94250.72;;;18.46;66.61
6343;BME280;3204;42.698;23.298;2022-11-20T04:04:48;94254.13;;;18.36;66.84
6343;BME280;3204;42.698;23.298;2022-11-20T04:07:13;94263.41;;;18.28;67.31
6343;BME280;3204;42.698;23.298;2022-11-20T04:09:39;94272.28;;;18.18;66.98
6343;BME280;3204;42.698;23.298;2022-11-20T04:12:04;94266.66;;;18.34;66.77
6343;BME280;3204;42.698;23.298;2022-11-20T04:14:30;94235.69;;;18.37;67.13
6343;BME280;3204;42.698;23.298;2022-11-20T04:16:56;94240.81;;;18.38;66.27
6343;BME280;3204;42.698;23.298;2022-11-20T04:19:21;94238.84;;;18.39;66.44
6343;BME280;3204;42.698;23.298;2022-11-20T04:21:47;94238.25;;;18.23;66.69
6343;BME280;3204;42.698;23.298;2022-11-20T04:24:12;94240.44;;;18.10;67.29
6343;BME280;3204;42.698;23.298;2022-11-20T04:26:38;94248.44;;;18.22;67.06
6343;BME280;3204;42.698;23.298;2022-11-20T04:29:04;94239.19;;;18.34;66.41
6343;BME280;3204;42.698;23.298;2022-11-20T04:31:32;94253.41;;;18.43;65.14
6343;BME280;3204;42.698;23.298;2022-11-20T04:34:06;94245.19;;;18.43;64.80
6343;BME280;3204;42.698;23.298;2022-11-20T04:36:32;94274.72;;;18.53;65.05
6343;BME280;3204;42.698;23.298;2022-11-20T04:39:00;94257.88;;;18.54;64.89
6343;BME280;3204;42.698;23.298;2022-11-20T04:41:28;94238.41;;;18.33;65.84
6343;BME280;3204;42.698;23.298;2022-11-20T04:43:59;94238.84;;;18.39;65.65
6343;BME280;3204;42.698;23.298;2022-11-20T04:46:27;94242.41;;;18.39;65.51
6343;BME280;3204;42.698;23.298;2022-11-20T04:48:54;94251.81;;;18.38;66.05
6343;BME280;3204;42.698;23.298;2022-11-20T04:51:19;94237.66;;;18.36;66.10
6343;BME280;3204;42.698;23.298;2022-11-20T04:53:45;94222.81;;;18.41;65.99
6343;BME280;3204;42.698;23.298;2022-11-20T04:56:11;94244.44;;;18.46;65.68
6343;BME280;3204;42.698;23.298;2022-11-20T04:58:37;94226.69;;;18.40;66.75
6343;BME280;3204;42.698;23.298;2022-11-20T05:01:05;94215.94;;;18.28;66.42
6343;BME280;3204;42.698;23.298;2022-11-20T05:03:31;94211.72;;;18.34;66.09
6343;BME280;3204;42.698;23.298;2022-11-20T05:06:00;94223.53;;;18.08;67.12
6343;BME280;3204;42.698;23.298;2022-11-20T05:08:27;94205.59;;;18.14;67.35
6343;BME280;3204;42.698;23.298;2022-11-20T05:10:52;94206.53;;;17.96;67.50
6343;BME280;3204;42.698;23.298;2022-11-20T05:13:18;94203.06;;;17.99;67.55
6343;BME280;3204;42.698;23.298;2022-11-20T05:15:43;94192.16;;;18.06;66.33
6343;BME280;3204;42.698;23.298;2022-11-20T05:18:09;94205.84;;;18.02;66.83
6343;BME280;3204;42.698;23.298;2022-11-20T05:20:34;94197.75;;;18.13;66.60
6343;BME280;3204;42.698;23.298;2022-11-20T05:23:02;94208.78;;;18.20;66.57
6343;BME280;3204;42.698;23.298;2022-11-20T05:25:27;94218.22;;;18.22;66.29
6343;BME280;3204;42.698;23.298;2022-11-20T05:27:53;94205.75;;;18.28;66.00
6343;BME280;3204;42.698;23.298;2022-11-20T05:30:19;94200.56;;;18.20;66.51
6343;BME280;3204;42.698;23.298;2022-11-20T05:32:44;94198.97;;;18.19;66.52
6343;BME280;3204;42.698;23.298;2022-11-20T05:35:10;94208.88;;;18.27;66.10
6343;BME280;3204;42.698;23.298;2022-11-20T05:37:35;94212.66;;;18.15;66.42
6343;BME280;3204;42.698;23.298;2022-11-20T05:40:01;94209.22;;;18.22;66.44
6343;BME280;3204;42.698;23.298;2022-11-20T05:42:30;94226.41;;;18.15;66.38
6343;BME280;3204;42.698;23.298;2022-11-20T05:44:57;94209.41;;;18.06;66.85
6343;BME280;3204;42.698;23.298;2022-11-20T05:47:22;94222.47;;;18.16;66.73
6343;BME280;3204;42.698;23.298;2022-11-20T05:49:48;94221.38;;;17.91;67.65
6343;BME280;3204;42.698;23.298;2022-11-20T05:52:15;94227.31;;;17.97;68.67
6343;BME280;3204;42.698;23.298;2022-11-20T05:54:40;94213.50;;;17.90;69.94
6343;BME280;3204;42.698;23.298;2022-11-20T05:57:06;94213.84;;;17.85;70.90
6343;BME280;3204;42.698;23.298;2022-11-20T05:59:31;94214.28;;;17.61;71.55
6343;BME280;3204;42.698;23.298;2022-11-20T06:01:57;94224.09;;;17.62;72.52
6343;BME280;3204;42.698;23.298;2022-11-20T06:04:22;94229.19;;;17.60;72.43
6343;BME280;3204;42.698;23.298;2022-11-20T06:06:48;94230.53;;;17.47;72.77
6343;BME280;3204;42.698;23.298;2022-11-20T06:09:13;94249.16;;;17.38;72.92
6343;BME280;3204;42.698;23.298;2022-11-20T06:11:39;94233.53;;;17.38;73.43
6343;BME280;3204;42.698;23.298;2022-11-20T06:14:05;94221.72;;;17.60;72.63
6343;BME280;3204;42.698;23.298;2022-11-20T06:16:31;94220.03;;;17.52;73.26
6343;BME280;3204;42.698;23.298;2022-11-20T06:18:56;94216.56;;;17.55;73.00
6343;BME280;3204;42.698;23.298;2022-11-20T06:21:22;94219.53;;;17.43;73.48
6343;BME280;3204;42.698;23.298;2022-11-20T06:23:49;94228.16;;;17.45;73.26
6343;BME280;3204;42.698;23.298;2022-11-20T06:26:19;94228.69;;;17.54;73.41
6343;BME280;3204;42.698;23.298;2022-11-20T06:28:45;94225.31;;;17.38;73.88
6343;BME280;3204;42.698;23.298;2022-11-20T06:31:13;94235.03;;;17.36;73.98
6343;BME280;3204;42.698;23.298;2022-11-20T06:33:39;94239.00;;;17.38;73.56
6343;BME280;3204;42.698;23.298;2022-11-20T06:36:05;94230.66;;;17.31;73.49
6343;BME280;3204;42.698;23.298;2022-11-20T06:38:31;94228.38;;;17.59;72.93
6343;BME280;3204;42.698;23.298;2022-11-20T06:40:56;94238.19;;;17.60;72.15
6343;BME280;3204;42.698;23.298;2022-11-20T06:43:22;94249.34;;;17.74;71.62
6343;BME280;3204;42.698;23.298;2022-11-20T06:45:52;94253.47;;;17.87;70.84
6343;BME280;3204;42.698;23.298;2022-11-20T06:48:19;94260.13;;;17.86;71.92
6343;BME280;3204;42.698;23.298;2022-11-20T06:50:44;94244.75;;;17.82;72.63
6343;BME280;3204;42.698;23.298;2022-11-20T06:53:10;94250.59;;;17.80;72.50
6343;BME280;3204;42.698;23.298;2022-11-20T06:55:35;94257.41;;;17.64;72.75
6343;BME280;3204;42.698;23.298;2022-11-20T06:58:01;94253.31;;;17.77;71.50
6343;BME280;3204;42.698;23.298;2022-11-20T07:00:26;94240.84;;;17.83;71.62
6343;BME280;3204;42.698;23.298;2022-11-20T07:02:52;94244.78;;;17.85;71.42
6343;BME280;3204;42.698;23.298;2022-11-20T07:05:18;94258.31;;;17.71;71.15
6343;BME280;3204;42.698;23.298;2022-11-20T07:07:43;94272.78;;;17.68;72.15
6343;BME280;3204;42.698;23.298;2022-11-20T07:10:09;94273.84;;;17.60;72.49
6343;BME280;3204;42.698;23.298;2022-11-20T07:12:35;94254.16;;;17.81;71.78
6343;BME280;3204;42.698;23.298;2022-11-20T07:15:01;94268.25;;;17.79;72.05
6343;BME280;3204;42.698;23.298;2022-11-20T07:17:26;94286.81;;;17.63;72.30
6343;BME280;3204;42.698;23.298;2022-11-20T07:19:52;94283.53;;;17.54;72.77
6343;BME280;3204;42.698;23.298;2022-11-20T07:22:17;94279.91;;;17.73;72.22
6343;BME280;3204;42.698;23.298;2022-11-20T07:24:43;94267.50;;;17.82;71.37
6343;BME280;3204;42.698;23.298;2022-11-20T07:27:08;94268.41;;;17.90;70.18
6343;BME280;3204;42.698;23.298;2022-11-20T07:29:34;94280.78;;;17.80;70.76
6343;BME280;3204;42.698;23.298;2022-11-20T07:31:59;94286.38;;;17.61;71.84
6343;BME280;3204;42.698;23.298;2022-11-20T07:34:25;94291.41;;;17.56;72.39
6343;BME280;3204;42.698;23.298;2022-11-20T07:36:50;94285.91;;;17.56;72.20
6343;BME280;3204;42.698;23.298;2022-11-20T07:39:16;94271.75;;;17.76;72.09
6343;BME280;3204;42.698;23.298;2022-11-20T07:41:42;94282.75;;;17.80;71.59
6343;BME280;3204;42.698;23.298;2022-11-20T07:44:08;94284.75;;;17.83;70.66
6343;BME280;3204;42.698;23.298;2022-11-20T07:46:33;94282.06;;;17.86;70.83
6343;BME280;3204;42.698;23.298;2022-11-20T07:48:59;94268.25;;;17.79;71.11
6343;BME280;3204;42.698;23.298;2022-11-20T07:51:25;94267.88;;;17.81;70.69
6343;BME280;3204;42.698;23.298;2022-11-20T07:53:53;94279.97;;;17.76;70.95
6343;BME280;3204;42.698;23.298;2022-11-20T07:56:19;94276.38;;;17.72;70.97
6343;BME280;3204;42.698;23.298;2022-11-20T07:58:44;94264.75;;;17.56;71.70
6343;BME280;3204;42.698;23.298;2022-11-20T08:01:10;94282.50;;;17.62;71.28
6343;BME280;3204;42.698;23.298;2022-11-20T08:03:35;94288.34;;;17.61;71.33
6343;BME280;3204;42.698;23.298;2022-11-20T08:06:04;94290.28;;;17.60;71.56
6343;BME280;3204;42.698;23.298;2022-11-20T08:08:30;94285.69;;;17.68;70.96
6343;BME280;3204;42.698;23.298;2022-11-20T08:10:59;94285.75;;;17.71;71.05
6343;BME280;3204;42.698;23.298;2022-11-20T08:13:43;94265.72;;;17.67;71.03
6343;BME280;3204;42.698;23.298;2022-11-20T08:16:27;94273.56;;;17.69;70.57
6343;BME280;3204;42.698;23.298;2022-11-20T08:18:53;94274.59;;;17.57;71.13
6343;BME280;3204;42.698;23.298;2022-11-20T08:21:19;94272.94;;;17.53;71.66
6343;BME280;3204;42.698;23.298;2022-11-20T08:23:44;94274.88;;;17.52;71.74
6343;BME280;3204;42.698;23.298;2022-11-20T08:26:10;94282.41;;;17.59;71.72
6343;BME280;3204;42.698;23.298;2022-11-20T08:28:35;94291.31;;;17.52;72.15
6343;BME280;3204;42.698;23.298;2022-11-20T08:31:01;94287.03;;;17.77;71.29
6343;BME280;3204;42.698;23.298;2022-11-20T08:33:27;94301.78;;;17.69;71.53
6343;BME280;3204;42.698;23.298;2022-11-20T08:35:53;94289.00;;;17.80;71.59
6343;BME280;3204;42.698;23.298;2022-11-20T08:38:18;94284.69;;;17.79;70.67
6343;BME280;3204;42.698;23.298;2022-11-20T08:40:44;94316.31;;;17.96;69.92
6343;BME280;3204;42.698;23.298;2022-11-20T08:43:29;94304.22;;;18.00;69.90
6343;BME280;3204;42.698;23.298;2022-11-20T08:45:56;94322.44;;;18.12;70.33
6343;BME280;3204;42.698;23.298;2022-11-20T08:48:22;94326.13;;;18.26;70.21
6343;BME280;3204;42.698;23.298;2022-11-20T08:50:47;94316.22;;;18.18;73.75
6343;BME280;3204;42.698;23.298;2022-11-20T08:53:13;94318.72;;;18.01;75.80
6343;BME280;3204;42.698;23.298;2022-11-20T08:55:38;94312.19;;;17.83;78.02
6343;BME280;3204;42.698;23.298;2022-11-20T08:58:05;94305.91;;;17.82;79.68
6343;BME280;3204;42.698;23.298;2022-11-20T09:00:31;94298.25;;;17.69;81.23
6343;BME280;3204;42.698;23.298;2022-11-20T09:02:57;94301.00;;;17.69;81.59
6343;BME280;3204;42.698;23.298;2022-11-20T09:05:24;94309.75;;;17.78;81.22
6343;BME280;3204;42.698;23.298;2022-11-20T09:07:49;94326.84;;;17.68;81.67
6343;BME280;3204;42.698;23.298;2022-11-20T09:10:15;94322.88;;;17.65;82.48
6343;BME280;3204;42.698;23.298;2022-11-20T09:12:40;94316.94;;;17.60;83.17
6343;BME280;3204;42.698;23.298;2022-11-20T09:15:06;94319.38;;;17.65;83.13
6343;BME280;3204;42.698;23.298;2022-11-20T09:17:32;94320.78;;;17.55;84.29
6343;BME280;3204;42.698;23.298;2022-11-20T09:19:57;94332.91;;;17.54;84.86
6343;BME280;3204;42.698;23.298;2022-11-20T09:22:22;94340.09;;;17.62;85.06
6343;BME280;3204;42.698;23.298;2022-11-20T09:24:48;94319.13;;;17.51;85.71
6343;BME280;3204;42.698;23.298;2022-11-20T09:27:15;94319.38;;;17.42;83.59
6343;BME280;3204;42.698;23.298;2022-11-20T09:29:45;94304.69;;;17.31;82.37
6343;BME280;3204;42.698;23.298;2022-11-20T09:32:10;94307.66;;;17.23;80.71
6343;BME280;3204;42.698;23.298;2022-11-20T09:34:36;94310.47;;;17.04;83.17
6343;BME280;3204;42.698;23.298;2022-11-20T09:37:02;94289.50;;;16.92;84.46
6343;BME280;3204;42.698;23.298;2022-11-20T09:39:27;94283.19;;;16.88;85.19
6343;BME280;3204;42.698;23.298;2022-11-20T09:55:19;94265.75;;;17.45;87.96
6343;BME280;3204;42.698;23.298;2022-11-20T09:57:47;94250.06;;;17.42;88.46
6343;BME280;3204;42.698;23.298;2022-11-20T10:00:14;94266.72;;;17.33;89.61
6343;BME280;3204;42.698;23.298;2022-11-20T10:02:48;94268.22;;;17.05;91.74
6343;BME280;3204;42.698;23.298;2022-11-20T10:08:37;94245.63;;;16.89;94.48
6343;BME280;3204;42.698;23.298;2022-11-20T10:11:28;94246.66;;;17.03;93.63
6343;BME280;3204;42.698;23.298;2022-11-20T10:24:41;94251.38;;;17.29;90.07
6343;BME280;3204;42.698;23.298;2022-11-20T10:30:15;94265.03;;;17.25;89.07
6343;BME280;3204;42.698;23.298;2022-11-20T10:33:03;94278.59;;;17.18;90.12
6343;BME280;3204;42.698;23.298;2022-11-20T10:36:08;94270.16;;;17.27;89.72
6343;BME280;3204;42.698;23.298;2022-11-20T10:38:43;94263.50;;;17.50;87.30
6343;BME280;3204;42.698;23.298;2022-11-20T10:41:24;94265.63;;;17.38;88.26
6343;BME280;3204;42.698;23.298;2022-11-20T10:44:14;94267.41;;;17.27;89.62
6343;BME280;3204;42.698;23.298;2022-11-20T10:47:01;94265.38;;;17.24;89.45
6343;BME280;3204;42.698;23.298;2022-11-20T10:49:26;94263.06;;;17.26;88.31
6343;BME280;3204;42.698;23.298;2022-11-20T10:54:46;94255.47;;;17.38;88.22
6343;BME280;3204;42.698;23.298;2022-11-20T11:00:19;94264.13;;;17.40;87.45
6343;BME280;3204;42.698;23.298;2022-11-20T11:02:49;94273.66;;;17.27;86.23
6343;BME280;3204;42.698;23.298;2022-11-20T11:07:59;94331.97;;;16.83;84.56
6343;BME280;3204;42.698;23.298;2022-11-20T11:12:59;94331.75;;;15.80;85.62
6343;BME280;3204;42.698;23.298;2022-11-20T11:15:35;94322.81;;;15.49;86.55
6343;BME280;3204;42.698;23.298;2022-11-20T11:18:01;94304.47;;;15.34;86.16
6343;BME280;3204;42.698;23.298;2022-11-20T11:20:26;94295.59;;;15.06;86.37
6343;BME280;3204;42.698;23.298;2022-11-20T11:22:59;94303.31;;;15.04;86.91
6343;BME280;3204;42.698;23.298;2022-11-20T11:25:30;94309.22;;;14.90;87.22
6343;BME280;3204;42.698;23.298;2022-11-20T11:28:03;94279.44;;;14.85;88.04
6343;BME280;3204;42.698;23.298;2022-11-20T11:30:30;94268.09;;;14.68;88.61
6343;BME280;3204;42.698;23.298;2022-11-20T11:33:09;94264.25;;;14.57;89.65
6343;BME280;3204;42.698;23.298;2022-11-20T11:35:44;94271.56;;;14.53;90.33
6343;BME280;3204;42.698;23.298;2022-11-20T11:38:14;94257.22;;;14.56;88.99
6343;BME280;3204;42.698;23.298;2022-11-20T11:40:40;94262.69;;;14.56;89.63
6343;BME280;3204;42.698;23.298;2022-11-20T11:43:25;94270.06;;;14.55;88.44
6343;BME280;3204;42.698;23.298;2022-11-20T11:49:01;94278.97;;;14.52;91.79
6343;BME280;3204;42.698;23.298;2022-11-20T11:51:39;94282.69;;;14.60;88.36
6343;BME280;3204;42.698;23.298;2022-11-20T12:05:24;94292.53;;;14.64;88.65
6343;BME280;3204;42.698;23.298;2022-11-20T12:07:56;94287.28;;;14.87;85.95
6343;BME280;3204;42.698;23.298;2022-11-20T12:13:13;94270.47;;;15.00;81.50
6343;BME280;3204;42.698;23.298;2022-11-20T12:15:44;94279.09;;;15.02;82.25
6343;BME280;3204;42.698;23.298;2022-11-20T12:18:15;94281.81;;;15.02;82.65
6343;BME280;3204;42.698;23.298;2022-11-20T12:20:51;94281.19;;;15.09;82.45
6343;BME280;3204;42.698;23.298;2022-11-20T12:23:52;94280.31;;;15.05;82.27
6343;BME280;3204;42.698;23.298;2022-11-20T12:34:52;94269.66;;;15.15;82.58
6343;BME280;3204;42.698;23.298;2022-11-20T12:42:58;94224.97;;;15.23;80.16
6343;BME280;3204;42.698;23.298;2022-11-20T12:48:38;94224.69;;;15.28;82.84
6343;BME280;3204;42.698;23.298;2022-11-20T12:59:42;94211.66;;;14.29;93.14
6343;BME280;3204;42.698;23.298;2022-11-20T13:02:23;94224.09;;;13.87;96.19
6343;BME280;3204;42.698;23.298;2022-11-20T13:07:28;94202.63;;;13.58;97.95
6343;BME280;3204;42.698;23.298;2022-11-20T13:09:54;94216.31;;;13.73;97.72
6343;BME280;3204;42.698;23.298;2022-11-20T13:12:44;94216.56;;;13.68;97.75
6343;BME280;3204;42.698;23.298;2022-11-20T13:15:29;94235.66;;;13.68;98.60
6343;BME280;3204;42.698;23.298;2022-11-20T13:18:00;94245.75;;;13.68;97.95
6343;BME280;3204;42.698;23.298;2022-11-20T13:20:27;94270.97;;;13.65;98.13
6343;BME280;3204;42.698;23.298;2022-11-20T13:22:55;94252.47;;;13.58;97.97
6343;BME280;3204;42.698;23.298;2022-11-20T13:25:28;94244.88;;;13.64;98.97
6343;BME280;3204;42.698;23.298;2022-11-20T13:27:55;94238.28;;;13.65;98.49
6343;BME280;3204;42.698;23.298;2022-11-20T13:30:22;94235.75;;;13.72;98.50
6343;BME280;3204;42.698;23.298;2022-11-20T13:32:57;94231.91;;;13.73;98.41
6343;BME280;3204;42.698;23.298;2022-11-20T13:35:26;94232.91;;;13.80;98.42
6343;BME280;3204;42.698;23.298;2022-11-20T13:38:02;94235.38;;;13.85;97.19
6343;BME280;3204;42.698;23.298;2022-11-20T13:40:28;94226.03;;;14.14;96.93
6343;BME280;3204;42.698;23.298;2022-11-20T13:43:15;94229.09;;;14.12;94.02
6343;BME280;3204;42.698;23.298;2022-11-20T13:45:41;94223.72;;;14.28;93.56
6343;BME280;3204;42.698;23.298;2022-11-20T13:48:21;94227.84;;;14.22;94.24
6343;BME280;3204;42.698;23.298;2022-11-20T13:50:59;94238.09;;;14.13;95.38
6343;BME280;3204;42.698;23.298;2022-11-20T13:54:01;94253.66;;;14.24;95.16
6343;BME280;3204;42.698;23.298;2022-11-20T14:01:45;94271.63;;;14.41;93.02
6343;BME280;3204;42.698;23.298;2022-11-20T14:04:15;94279.31;;;14.51;92.24
6343;BME280;3204;42.698;23.298;2022-11-20T14:06:45;94265.59;;;14.47;92.49
6343;BME280;3204;42.698;23.298;2022-11-20T14:09:13;94268.66;;;14.46;93.28
6343;BME280;3204;42.698;23.298;2022-11-20T14:11:49;94265.03;;;14.42;94.15
6343;BME280;3204;42.698;23.298;2022-11-20T14:14:17;94269.16;;;14.36;95.07
6343;BME280;3204;42.698;23.298;2022-11-20T14:16:43;94258.75;;;14.41;95.43
6343;BME280;3204;42.698;23.298;2022-11-20T14:19:29;94262.84;;;14.47;95.73
6343;BME280;3204;42.698;23.298;2022-11-20T14:24:44;94257.22;;;14.56;94.90
6343;BME280;3204;42.698;23.298;2022-11-20T14:27:18;94253.25;;;14.53;95.38
6343;BME280;3204;42.698;23.298;2022-11-20T14:29:47;94247.63;;;14.62;96.22
6343;BME280;3204;42.698;23.298;2022-11-20T14:32:21;94258.53;;;14.62;96.61
6343;BME280;3204;42.698;23.298;2022-11-20T14:34:50;94263.03;;;14.54;95.83
6343;BME280;3204;42.698;23.298;2022-11-20T14:37:24;94274.75;;;14.55;93.59
6343;BME280;3204;42.698;23.298;2022-11-20T14:39:59;94279.41;;;14.54;92.96
6343;BME280;3204;42.698;23.298;2022-11-20T14:42:27;94277.38;;;14.67;90.20
6343;BME280;3204;42.698;23.298;2022-11-20T14:44:56;94267.06;;;14.60;89.91
6343;BME280;3204;42.698;23.298;2022-11-20T14:47:25;94267.00;;;14.72;88.73
6343;BME280;3204;42.698;23.298;2022-11-20T14:49:52;94278.00;;;14.60;87.82
6343;BME280;3204;42.698;23.298;2022-11-20T14:52:21;94277.66;;;14.46;88.74
6343;BME280;3204;42.698;23.298;2022-11-20T14:54:55;94274.28;;;14.37;89.48